Gifford, Illinois
Current Conditions -  °F | °C
As of 2:30 PM on Friday 19 Dec 2014 (Local Time) from KTIP Reporting Station
Scattered Clouds Scattered Clouds  
Wind Chill: 35°   Ceiling: Unl
Heat Index: 35°   Visibility: 10mi
Dew Point: 26°   Wind: 3mph
Humidity: 70%   Direction: 190°S
Pressure: 30.3"   Gusts: NA
Location:  40.31°N, 88.02°W
Report Text: KTIP 192030Z AUTO 19003KT 10SM SCT021 SCT026 02/M03 A3030 RMK AO2 T00151034
Loading
Personal Weather Stations






























Interactive Weather Map New forecast layout! Learn more

10-Day Weather Forecast

Advertisements
Track Severe Weather on mobile